createdAt,value
2023-04-27T00:00:38.957Z,95.02
2023-04-27T00:03:26.505Z,93.20
2023-04-27T00:06:15.038Z,94.47
2023-04-27T00:09:01.857Z,94.94
2023-04-27T00:11:48.452Z,93.62
2023-04-27T00:14:35.142Z,93.11
2023-04-27T00:17:22.129Z,92.90
2023-04-27T00:20:11.918Z,94.17
2023-04-27T00:22:59.786Z,93.82
2023-04-27T00:25:46.454Z,94.51
2023-04-27T00:28:33.462Z,94.63
2023-04-27T00:31:20.782Z,94.80
2023-04-27T00:34:09.101Z,93.12
2023-04-27T00:36:55.770Z,92.96
2023-04-27T00:39:43.974Z,92.89
2023-04-27T00:42:30.734Z,93.59
2023-04-27T00:45:17.958Z,93.30
2023-04-27T00:48:05.065Z,92.18
2023-04-27T00:50:51.664Z,93.42
2023-04-27T00:53:38.903Z,94.02
2023-04-27T00:56:27.127Z,94.42
2023-04-27T00:59:15.193Z,93.85
2023-04-27T01:02:02.879Z,93.41
2023-04-27T01:04:52.186Z,91.55
2023-04-27T01:07:39.837Z,89.83
2023-04-27T01:10:27.080Z,89.93
2023-04-27T01:13:15.205Z,88.82
2023-04-27T01:16:01.959Z,87.96
2023-04-27T01:18:48.934Z,87.50
2023-04-27T01:21:35.882Z,88.94
2023-04-27T01:24:23.942Z,88.53
2023-04-27T01:27:11.065Z,88.34
2023-04-27T01:29:57.683Z,88.73
2023-04-27T01:32:44.452Z,87.53
2023-04-27T01:35:31.770Z,87.09
2023-04-27T01:38:20.081Z,88.20
2023-04-27T01:41:09.388Z,87.70
2023-04-27T01:43:55.873Z,87.34
2023-04-27T01:46:42.837Z,85.68
2023-04-27T01:49:29.716Z,83.93
2023-04-27T01:52:16.522Z,84.28
2023-04-27T01:55:03.302Z,83.11
2023-04-27T01:57:51.578Z,82.94
2023-04-27T02:00:38.353Z,81.30
2023-04-27T02:03:25.211Z,81.44
2023-04-27T02:06:11.818Z,79.43
2023-04-27T02:08:58.962Z,79.92
2023-04-27T02:11:45.892Z,79.47
2023-04-27T02:14:34.116Z,79.31
2023-04-27T02:17:21.503Z,81.83
2023-04-27T02:20:10.059Z,84.71
2023-04-27T02:22:56.598Z,84.94
2023-04-27T02:25:47.076Z,85.30
2023-04-27T02:28:33.798Z,85.85
2023-04-27T02:31:22.560Z,87.04
2023-04-27T02:34:09.356Z,86.79
2023-04-27T02:36:56.441Z,87.62
2023-04-27T02:39:43.089Z,86.93
2023-04-27T02:42:31.332Z,87.46
2023-04-27T02:45:18.089Z,86.13
2023-04-27T02:48:06.689Z,85.26
2023-04-27T02:50:54.184Z,84.97
2023-04-27T02:53:41.092Z,85.47
2023-04-27T02:56:27.976Z,85.67
2023-04-27T02:59:14.964Z,85.56
2023-04-27T03:02:01.916Z,85.63
2023-04-27T03:04:54.756Z,88.22
2023-04-27T03:07:41.429Z,88.24
2023-04-27T03:10:28.403Z,85.64
2023-04-27T03:13:15.848Z,86.80
2023-04-27T03:16:04.186Z,86.80
2023-04-27T03:18:50.577Z,86.30
2023-04-27T03:21:38.813Z,87.59
2023-04-27T03:24:26.748Z,88.07
2023-04-27T03:27:13.215Z,87.20
2023-04-27T03:30:00.146Z,87.89
2023-04-27T03:32:47.829Z,88.14
2023-04-27T03:35:34.503Z,89.10
2023-04-27T03:38:22.858Z,90.57
2023-04-27T03:41:09.802Z,88.26
2023-04-27T03:43:56.610Z,88.97
2023-04-27T03:46:43.450Z,89.10
2023-04-27T03:49:30.241Z,89.18
2023-04-27T03:52:16.801Z,89.44
2023-04-27T03:55:05.648Z,89.12
2023-04-27T03:57:52.843Z,87.59
2023-04-27T04:00:41.424Z,87.51
2023-04-27T04:03:28.425Z,88.39
2023-04-27T04:06:15.577Z,86.82
2023-04-27T04:09:02.214Z,87.50
2023-04-27T04:11:50.209Z,86.15
2023-04-27T04:14:36.857Z,86.24
2023-04-27T04:17:23.605Z,88.73
2023-04-27T04:20:11.216Z,88.18
2023-04-27T04:22:57.856Z,88.38
2023-04-27T04:25:48.179Z,88.79
2023-04-27T04:28:37.248Z,86.15
2023-04-27T04:31:24.228Z,84.83
2023-04-27T04:34:11.253Z,84.88
2023-04-27T04:36:58.216Z,84.16
2023-04-27T04:39:44.829Z,82.96
2023-04-27T04:42:31.520Z,82.38
2023-04-27T04:45:19.923Z,82.55
2023-04-27T04:48:07.248Z,82.08
2023-04-27T04:50:55.044Z,81.95
2023-04-27T04:53:41.893Z,81.52
2023-04-27T04:56:28.651Z,80.58
2023-04-27T04:59:16.484Z,79.04
2023-04-27T05:02:04.680Z,78.93
2023-04-27T05:04:52.342Z,77.99
2023-04-27T05:07:39.011Z,76.91
2023-04-27T05:10:25.719Z,74.23
2023-04-27T05:13:12.386Z,69.59
2023-04-27T05:15:59.329Z,65.15
2023-04-27T05:18:47.435Z,64.14
2023-04-27T05:21:34.176Z,61.32
2023-04-27T05:24:21.114Z,61.53
2023-04-27T05:27:08.025Z,59.73
2023-04-27T05:29:54.554Z,55.49
2023-04-27T05:32:41.490Z,51.95
2023-04-27T05:35:29.923Z,48.92
2023-04-27T05:38:17.602Z,45.85
2023-04-27T05:41:04.245Z,48.14
2023-04-27T05:43:51.447Z,49.29
2023-04-27T05:46:38.831Z,53.29
2023-04-27T05:49:26.025Z,54.94
2023-04-27T05:52:13.951Z,52.14
2023-04-27T05:55:00.915Z,52.15
2023-04-27T05:57:51.666Z,53.00
2023-04-27T06:00:43.990Z,54.89
2023-04-27T06:03:31.308Z,57.19
2023-04-27T06:06:17.973Z,58.73
2023-04-27T06:09:06.241Z,58.77
2023-04-27T06:11:52.938Z,59.05
2023-04-27T06:14:39.980Z,56.74
2023-04-27T06:17:26.638Z,57.26
2023-04-27T06:20:13.670Z,57.51
2023-04-27T06:23:00.514Z,58.13
2023-04-27T06:25:48.687Z,57.81
2023-04-27T06:28:35.626Z,57.27
2023-04-27T06:31:22.335Z,57.86
2023-04-27T06:34:09.292Z,57.05
2023-04-27T06:36:56.115Z,56.63
2023-04-27T06:39:42.835Z,58.20
2023-04-27T06:42:31.127Z,58.32
2023-04-27T06:45:18.078Z,57.71
2023-04-27T06:48:05.042Z,56.41
2023-04-27T06:50:52.061Z,56.87
2023-04-27T06:53:38.895Z,56.38
2023-04-27T06:56:25.366Z,56.16
2023-04-27T06:59:13.556Z,56.03
2023-04-27T07:02:00.460Z,57.46
2023-04-27T07:04:47.964Z,57.47
2023-04-27T07:07:34.635Z,59.16
2023-04-27T07:10:21.610Z,57.35
2023-04-27T07:13:09.607Z,58.05
2023-04-27T07:15:58.878Z,57.45
2023-04-27T07:18:48.200Z,57.36
2023-04-27T07:21:48.152Z,57.86
2023-04-27T07:24:37.372Z,57.40
2023-04-27T07:27:27.108Z,58.03
2023-04-27T07:30:18.375Z,59.26
2023-04-27T07:33:19.008Z,59.26
2023-04-27T07:36:10.439Z,57.74
2023-04-27T07:38:59.586Z,58.40
2023-04-27T07:41:46.765Z,56.24
2023-04-27T07:44:33.487Z,52.76
2023-04-27T07:47:20.346Z,54.74
2023-04-27T07:50:10.323Z,55.08
2023-04-27T07:52:57.926Z,55.01
2023-04-27T07:55:44.996Z,54.39
2023-04-27T07:58:31.523Z,55.11
2023-04-27T08:01:20.864Z,53.48
2023-04-27T08:04:08.449Z,53.76
2023-04-27T08:06:57.322Z,55.27
2023-04-27T08:09:44.140Z,53.26
2023-04-27T08:12:30.923Z,54.31
2023-04-27T08:15:17.703Z,55.08
2023-04-27T08:18:04.895Z,56.09
2023-04-27T08:20:51.449Z,54.21
2023-04-27T08:23:39.463Z,52.13
2023-04-27T08:26:26.476Z,52.86
2023-04-27T08:29:24.200Z,51.59
2023-04-27T08:32:14.687Z,50.59
2023-04-27T08:35:01.295Z,48.03
2023-04-27T08:37:48.159Z,47.69
2023-04-27T08:40:36.211Z,45.16
2023-04-27T08:43:23.025Z,42.40
2023-04-27T08:46:09.882Z,43.08
2023-04-27T08:48:56.766Z,45.23
2023-04-27T08:51:44.182Z,44.63
2023-04-27T08:54:30.996Z,47.96
2023-04-27T08:57:19.199Z,47.99
2023-04-27T09:00:12.786Z,48.69
2023-04-27T09:02:59.475Z,44.93
2023-04-27T09:06:02.996Z,42.80
2023-04-27T09:08:52.363Z,41.63
2023-04-27T09:11:40.413Z,41.64
2023-04-27T09:14:28.852Z,45.30
2023-04-27T09:17:15.521Z,46.93
2023-04-27T09:20:10.900Z,48.75
2023-04-27T09:22:58.657Z,48.94
2023-04-27T09:25:45.209Z,47.36
2023-04-27T09:28:32.864Z,49.27
2023-04-27T09:31:21.541Z,49.09
2023-04-27T09:34:08.091Z,49.20
2023-04-27T09:36:54.986Z,48.78
2023-04-27T09:39:42.861Z,49.47
2023-04-27T09:42:29.446Z,49.07
2023-04-27T09:45:16.364Z,46.94
2023-04-27T09:48:06.845Z,45.94
2023-04-27T09:50:54.106Z,42.43
2023-04-27T09:53:47.746Z,41.31
2023-04-27T09:56:43.579Z,43.17
2023-04-27T09:59:42.858Z,43.89
2023-04-27T10:02:49.959Z,43.84
2023-04-27T10:05:52.384Z,43.39
2023-04-27T10:08:40.391Z,42.95
2023-04-27T10:11:39.130Z,44.04
2023-04-27T10:14:26.486Z,44.80
2023-04-27T10:17:13.473Z,45.18
2023-04-27T10:20:01.853Z,43.83
2023-04-27T10:22:52.543Z,43.35
2023-04-27T10:25:41.374Z,39.26
2023-04-27T10:28:28.198Z,39.34
2023-04-27T10:31:16.096Z,38.29
2023-04-27T10:34:09.886Z,39.35
2023-04-27T10:37:06.398Z,42.05
2023-04-27T10:39:55.002Z,42.51
2023-04-27T10:42:41.773Z,44.09
2023-04-27T10:45:31.517Z,39.80
2023-04-27T10:48:18.621Z,38.33
2023-04-27T10:51:06.571Z,39.57
2023-04-27T10:53:54.068Z,41.74
2023-04-27T10:56:42.266Z,43.04
2023-04-27T10:59:29.196Z,42.13
2023-04-27T11:02:15.852Z,44.39
2023-04-27T11:05:07.521Z,44.60
2023-04-27T11:07:54.418Z,44.42
2023-04-27T11:10:43.900Z,44.48
2023-04-27T11:13:33.528Z,45.08
2023-04-27T11:16:20.554Z,45.23
2023-04-27T11:19:07.379Z,45.15
2023-04-27T11:21:54.055Z,45.02
2023-04-27T11:24:48.956Z,45.12
2023-04-27T11:27:39.699Z,43.76
2023-04-27T11:30:27.978Z,41.19
2023-04-27T11:33:14.432Z,42.45
2023-04-27T11:36:01.858Z,43.70
2023-04-27T11:38:48.594Z,42.91
2023-04-27T11:41:36.434Z,40.67
2023-04-27T11:44:27.478Z,40.44
2023-04-27T11:47:19.463Z,40.53
2023-04-27T11:50:08.043Z,40.36
2023-04-27T11:52:56.043Z,42.87
2023-04-27T11:55:43.336Z,43.30
2023-04-27T11:58:30.734Z,41.69
2023-04-27T12:01:27.552Z,42.30
2023-04-27T12:04:22.958Z,43.28
2023-04-27T12:07:09.455Z,41.58
2023-04-27T12:09:56.229Z,42.93
2023-04-27T12:12:43.712Z,42.83
2023-04-27T12:15:30.316Z,42.79
2023-04-27T12:18:17.050Z,40.62
2023-04-27T12:23:55.069Z,40.22
2023-04-27T12:26:41.991Z,39.40
2023-04-27T12:29:28.668Z,39.48
2023-04-27T12:32:15.366Z,38.41
2023-04-27T12:35:02.210Z,38.05
2023-04-27T12:37:50.229Z,38.65
2023-04-27T12:40:36.849Z,37.29
2023-04-27T12:43:23.653Z,38.46
2023-04-27T12:46:10.518Z,36.82
2023-04-27T12:48:57.573Z,37.07
2023-04-27T12:51:44.310Z,35.17
2023-04-27T12:54:32.330Z,34.49
2023-04-27T12:57:19.452Z,35.06
2023-04-27T13:00:10.282Z,36.18
2023-04-27T13:02:57.421Z,35.40
2023-04-27T13:05:44.511Z,36.28
2023-04-27T13:08:31.072Z,37.28
2023-04-27T13:11:19.837Z,35.57
2023-04-27T13:14:06.401Z,36.49
2023-04-27T13:16:53.224Z,37.06
2023-04-27T13:19:40.029Z,36.28
2023-04-27T13:22:26.824Z,37.89
2023-04-27T13:25:14.116Z,37.04
2023-04-27T13:28:02.011Z,38.70
2023-04-27T13:30:49.122Z,39.61
2023-04-27T13:33:44.625Z,38.24
2023-04-27T13:36:31.314Z,38.03
2023-04-27T13:39:18.103Z,37.31
2023-04-27T13:42:04.715Z,38.20
2023-04-27T13:44:52.873Z,37.51
2023-04-27T13:47:40.771Z,35.67
2023-04-27T13:50:27.523Z,38.60
2023-04-27T13:53:16.221Z,37.20
2023-04-27T13:56:02.775Z,36.09
2023-04-27T13:58:49.661Z,36.09
2023-04-27T14:01:38.103Z,39.51
2023-04-27T14:04:24.996Z,38.77
2023-04-27T14:07:11.767Z,39.11
2023-04-27T14:09:58.582Z,39.65
2023-04-27T14:12:46.091Z,40.66
2023-04-27T14:15:36.927Z,41.57
2023-04-27T14:18:31.924Z,41.20
2023-04-27T14:21:19.286Z,40.41
2023-04-27T14:24:06.613Z,41.38
2023-04-27T14:26:53.645Z,39.82
2023-04-27T14:29:40.245Z,40.09
2023-04-27T14:32:27.718Z,40.33
2023-04-27T14:35:15.836Z,39.28
2023-04-27T14:38:02.922Z,40.39
2023-04-27T14:40:49.591Z,39.47
2023-04-27T14:43:36.534Z,41.57
2023-04-27T14:46:23.167Z,42.43
2023-04-27T14:49:09.988Z,40.67
2023-04-27T14:51:58.781Z,41.63
2023-04-27T14:54:45.172Z,40.96
2023-04-27T14:57:32.114Z,40.54
2023-04-27T15:00:19.548Z,40.11
2023-04-27T15:03:06.276Z,39.13
2023-04-27T15:05:52.830Z,39.29
2023-04-27T15:08:41.018Z,40.35
2023-04-27T15:11:27.638Z,40.49
2023-04-27T15:14:14.174Z,41.44
2023-04-27T15:17:01.330Z,40.31
2023-04-27T15:19:48.097Z,40.69
2023-04-27T15:22:34.823Z,41.81
2023-04-27T15:25:23.095Z,40.74
2023-04-27T15:28:09.956Z,40.12
2023-04-27T15:30:56.811Z,40.34
2023-04-27T15:33:43.257Z,40.36
2023-04-27T15:36:29.966Z,39.71
2023-04-27T15:39:16.765Z,41.51
2023-04-27T15:42:06.540Z,41.07
2023-04-27T15:44:52.956Z,40.89
2023-04-27T15:47:39.660Z,42.13
2023-04-27T15:50:26.700Z,41.12
2023-04-27T15:53:13.591Z,42.32
2023-04-27T15:56:00.344Z,40.14
2023-04-27T15:58:48.412Z,39.04
2023-04-27T16:01:35.384Z,40.07
2023-04-27T16:04:22.286Z,41.96
2023-04-27T16:07:09.243Z,41.26
2023-04-27T16:09:55.760Z,42.37
2023-04-27T16:12:42.615Z,40.41
2023-04-27T16:15:30.657Z,40.29
2023-04-27T16:18:17.479Z,42.73
2023-04-27T16:21:04.435Z,41.54
2023-04-27T16:23:51.821Z,39.16
2023-04-27T16:26:38.198Z,40.28
2023-04-27T16:29:24.940Z,39.61
2023-04-27T16:32:13.077Z,37.90
2023-04-27T16:34:59.763Z,40.14
2023-04-27T16:37:46.599Z,39.74
2023-04-27T16:40:33.475Z,39.99
2023-04-27T16:43:20.278Z,38.54
2023-04-27T16:46:08.882Z,38.19
2023-04-27T16:48:57.045Z,39.16
2023-04-27T16:51:43.530Z,38.43
2023-04-27T16:54:30.180Z,40.68
2023-04-27T16:57:16.980Z,42.45
2023-04-27T17:00:05.078Z,43.11
2023-04-27T17:02:51.839Z,44.12
2023-04-27T17:05:39.962Z,45.46
2023-04-27T17:08:26.916Z,45.76
2023-04-27T17:11:14.573Z,45.13
2023-04-27T17:14:01.269Z,45.24
2023-04-27T17:16:47.971Z,49.20
2023-04-27T17:19:34.835Z,49.04
2023-04-27T17:22:23.034Z,50.66
2023-04-27T17:25:10.321Z,50.48
2023-04-27T17:27:58.036Z,49.88
2023-04-27T17:30:46.079Z,49.28
2023-04-27T17:33:32.757Z,50.03
2023-04-27T17:36:19.493Z,51.40
2023-04-27T17:39:07.462Z,50.57
2023-04-27T17:41:54.475Z,52.88
2023-04-27T17:44:42.377Z,54.10
2023-04-27T17:47:29.357Z,52.31
2023-04-27T17:50:16.100Z,53.36
2023-04-27T17:53:02.998Z,55.91
2023-04-27T17:55:52.749Z,56.78
2023-04-27T17:58:39.343Z,52.91
2023-04-27T18:01:26.162Z,53.03
2023-04-27T18:04:13.024Z,52.98
2023-04-27T18:06:59.629Z,52.58
2023-04-27T18:09:46.662Z,54.76
2023-04-27T18:12:34.987Z,55.90
2023-04-27T18:15:21.629Z,57.15
2023-04-27T18:18:08.561Z,53.90
2023-04-27T18:20:55.378Z,54.96
2023-04-27T18:23:42.788Z,55.49
2023-04-27T18:26:30.695Z,56.73
2023-04-27T18:29:18.724Z,55.83
2023-04-27T18:32:06.478Z,55.99
2023-04-27T18:34:52.896Z,56.54
2023-04-27T18:37:39.712Z,58.08
2023-04-27T18:40:26.921Z,56.30
2023-04-27T18:43:13.917Z,56.70
2023-04-27T18:46:01.947Z,55.45
2023-04-27T18:48:48.668Z,60.45
2023-04-27T18:51:35.692Z,60.36
2023-04-27T18:54:22.154Z,60.51
2023-04-27T18:57:09.052Z,64.76
2023-04-27T18:59:56.135Z,64.48
2023-04-27T19:02:44.272Z,63.41
2023-04-27T19:05:30.840Z,65.79
2023-04-27T19:08:17.609Z,65.43
2023-04-27T19:11:04.492Z,64.66
2023-04-27T19:13:51.364Z,66.61
2023-04-27T19:16:38.243Z,67.42
2023-04-27T19:19:26.742Z,69.72
2023-04-27T19:22:13.711Z,68.46
2023-04-27T19:25:00.721Z,72.39
2023-04-27T19:27:47.272Z,69.77
2023-04-27T19:30:33.889Z,76.11
2023-04-27T19:33:20.833Z,73.29
2023-04-27T19:36:09.120Z,78.69
2023-04-27T19:38:55.952Z,76.24
2023-04-27T19:41:43.106Z,76.12
2023-04-27T19:44:29.983Z,77.16
2023-04-27T19:47:16.896Z,76.45
2023-04-27T19:50:04.899Z,76.12
2023-04-27T19:52:53.805Z,78.23
2023-04-27T19:55:44.021Z,81.80
2023-04-27T19:58:35.466Z,81.54
2023-04-27T20:01:25.783Z,81.25
2023-04-27T20:04:14.291Z,80.45
2023-04-27T20:07:03.325Z,80.22
2023-04-27T20:09:53.270Z,80.40
2023-04-27T20:12:52.111Z,80.09
2023-04-27T20:15:43.371Z,78.11
2023-04-27T20:18:32.036Z,78.75
2023-04-27T20:21:19.316Z,81.77
2023-04-27T20:24:06.519Z,82.20
2023-04-27T20:26:54.293Z,82.77
2023-04-27T20:29:43.154Z,82.38
2023-04-27T20:32:29.850Z,82.97
2023-04-27T20:35:16.499Z,82.92
2023-04-27T20:38:03.564Z,82.39
2023-04-27T20:40:53.988Z,84.52
2023-04-27T20:43:45.534Z,85.58
2023-04-27T20:46:32.140Z,82.50
2023-04-27T20:49:24.664Z,82.19
2023-04-27T20:52:18.483Z,84.71
2023-04-27T20:55:06.347Z,87.71
2023-04-27T20:57:53.168Z,87.41
2023-04-27T21:00:41.763Z,88.41
2023-04-27T21:03:28.523Z,88.69
2023-04-27T21:06:15.430Z,89.62
2023-04-27T21:09:02.079Z,88.63
2023-04-27T21:11:51.541Z,89.74
2023-04-27T21:14:38.041Z,87.71
2023-04-27T21:17:27.327Z,87.97
2023-04-27T21:20:14.678Z,89.87
2023-04-27T21:23:02.412Z,89.24
2023-04-27T21:25:49.006Z,87.84
2023-04-27T21:28:36.226Z,85.68
2023-04-27T21:31:22.903Z,86.57
2023-04-27T21:34:11.027Z,90.92
2023-04-27T21:36:58.492Z,91.93
2023-04-27T21:39:45.012Z,91.84
2023-04-27T21:42:32.109Z,91.93
2023-04-27T21:45:19.021Z,90.50
2023-04-27T21:48:06.286Z,89.45
2023-04-27T21:50:54.070Z,90.00
2023-04-27T21:53:40.827Z,90.82
2023-04-27T21:56:27.625Z,91.64
2023-04-27T21:59:14.535Z,91.49
2023-04-27T22:02:06.577Z,91.54
2023-04-27T22:04:53.590Z,91.48
2023-04-27T22:07:41.615Z,92.80
2023-04-27T22:10:28.264Z,91.44
2023-04-27T22:13:18.824Z,89.36
2023-04-27T22:16:06.611Z,92.83
2023-04-27T22:18:53.973Z,91.00
2023-04-27T22:21:40.725Z,89.89
2023-04-27T22:24:28.765Z,92.54
2023-04-27T22:27:15.505Z,92.24
2023-04-27T22:30:02.216Z,94.88
2023-04-27T22:32:48.982Z,93.16
2023-04-27T22:35:37.116Z,90.83
2023-04-27T22:38:24.123Z,92.81
2023-04-27T22:41:12.472Z,94.99
2023-04-27T22:43:59.145Z,94.29
2023-04-27T22:46:46.240Z,94.02
2023-04-27T22:49:34.361Z,93.63
2023-04-27T22:52:21.202Z,95.22
2023-04-27T22:55:08.318Z,96.61
2023-04-27T22:57:56.452Z,97.19
2023-04-27T23:00:43.273Z,96.70
2023-04-27T23:03:30.214Z,97.35
2023-04-27T23:06:17.089Z,96.69
2023-04-27T23:09:33.739Z,96.08
2023-04-27T23:12:42.383Z,99.05
2023-04-27T23:15:36.916Z,99.46
2023-04-27T23:18:42.859Z,98.96
2023-04-27T23:21:42.261Z,99.51
2023-04-27T23:24:29.365Z,98.51
2023-04-27T23:27:34.110Z,98.29
2023-04-27T23:30:23.066Z,98.24
2023-04-27T23:33:11.206Z,97.13
2023-04-27T23:36:07.229Z,96.52
2023-04-27T23:39:09.962Z,95.20
2023-04-27T23:42:06.166Z,99.55
2023-04-27T23:45:13.219Z,100.00
2023-04-27T23:48:06.950Z,100.00
2023-04-27T23:51:01.605Z,99.98
2023-04-27T23:53:47.918Z,99.08
2023-04-27T23:56:34.695Z,100.00
2023-04-27T23:59:21.394Z,100.00
